createdAt,value
2022-11-24T00:01:17.850Z,15.07
2022-11-24T00:03:47.653Z,16.98
2022-11-24T00:06:17.709Z,15.98
2022-11-24T00:08:47.508Z,16.70
2022-11-24T00:11:17.678Z,18.02
2022-11-24T00:13:46.312Z,17.73
2022-11-24T00:16:17.874Z,16.65
2022-11-24T00:18:48.371Z,17.27
2022-11-24T00:21:17.717Z,17.00
2022-11-24T00:23:46.167Z,14.90
2022-11-24T00:26:15.877Z,17.52
2022-11-24T00:28:46.209Z,17.13
2022-11-24T00:31:21.302Z,18.75
2022-11-24T00:33:51.104Z,16.58
2022-11-24T00:36:20.908Z,20.13
2022-11-24T00:38:49.236Z,18.05
2022-11-24T00:41:17.175Z,18.30
2022-11-24T00:43:45.188Z,18.90
2022-11-24T00:46:13.273Z,19.00
2022-11-24T00:48:42.834Z,19.50
2022-11-24T00:51:13.368Z,17.75
2022-11-24T00:53:41.916Z,16.63
2022-11-24T00:56:10.366Z,17.75
2022-11-24T00:58:39.095Z,17.48
2022-11-24T01:01:09.202Z,18.40
2022-11-24T01:03:37.809Z,18.75
2022-11-24T01:06:09.205Z,18.05
2022-11-24T01:08:39.021Z,17.85
2022-11-24T01:11:13.094Z,18.00
2022-11-24T01:13:43.020Z,17.67
2022-11-24T01:16:17.356Z,18.08
2022-11-24T01:18:46.102Z,19.48
2022-11-24T01:21:15.609Z,18.60
2022-11-24T01:23:44.137Z,18.50
2022-11-24T01:26:14.945Z,19.08
2022-11-24T01:28:47.118Z,21.30
2022-11-24T01:31:16.628Z,19.20
2022-11-24T01:33:44.720Z,17.63
2022-11-24T01:36:13.378Z,19.92
2022-11-24T01:38:42.997Z,21.67
2022-11-24T01:41:13.739Z,17.23
2022-11-24T01:43:42.505Z,22.25
2022-11-24T01:46:20.666Z,20.60
2022-11-24T01:48:53.897Z,20.42
2022-11-24T01:51:26.049Z,16.55
2022-11-24T01:54:00.156Z,20.63
2022-11-24T01:56:29.634Z,15.93
2022-11-24T01:59:00.186Z,18.90
2022-11-24T02:01:31.520Z,19.38
2022-11-24T02:04:01.641Z,19.90
2022-11-24T02:06:32.662Z,20.08
2022-11-24T02:09:08.104Z,20.08
2022-11-24T02:11:38.931Z,18.58
2022-11-24T02:14:10.993Z,19.00
2022-11-24T02:16:40.758Z,18.65
2022-11-24T02:19:17.763Z,19.67
2022-11-24T02:21:45.850Z,21.17
2022-11-24T02:24:24.568Z,19.08
2022-11-24T02:26:54.161Z,20.60
2022-11-24T02:29:23.031Z,18.05
2022-11-24T02:31:55.974Z,21.83
2022-11-24T02:34:24.004Z,17.70
2022-11-24T02:36:51.986Z,16.23
2022-11-24T02:39:20.410Z,20.20
2022-11-24T02:41:53.228Z,17.83
2022-11-24T02:44:28.105Z,16.92
2022-11-24T02:47:03.608Z,18.98
2022-11-24T02:49:31.787Z,17.77
2022-11-24T02:52:00.053Z,18.42
2022-11-24T02:54:28.197Z,19.15
2022-11-24T02:56:56.402Z,18.70
2022-11-24T02:59:26.161Z,19.35
2022-11-24T03:01:54.408Z,20.20
2022-11-24T03:04:22.890Z,19.42
2022-11-24T03:06:51.145Z,18.42
2022-11-24T03:09:19.352Z,20.85
2022-11-24T03:11:47.632Z,20.98
2022-11-24T03:14:15.711Z,19.55
2022-11-24T03:16:45.577Z,19.15
2022-11-24T03:19:13.772Z,18.73
2022-11-24T03:21:41.764Z,19.15
2022-11-24T03:24:09.917Z,17.73
2022-11-24T03:26:38.047Z,18.95
2022-11-24T03:29:06.288Z,19.98
2022-11-24T03:31:34.524Z,17.25
2022-11-24T03:34:04.233Z,19.92
2022-11-24T03:36:32.203Z,18.52
2022-11-24T03:39:00.334Z,18.20
2022-11-24T03:41:28.683Z,18.17
2022-11-24T03:43:56.773Z,17.85
2022-11-24T03:46:24.917Z,20.45
2022-11-24T03:48:53.178Z,18.88
2022-11-24T03:51:22.827Z,17.92
2022-11-24T03:53:51.309Z,17.67
2022-11-24T03:56:19.368Z,20.55
2022-11-24T03:58:47.559Z,17.60
2022-11-24T04:01:15.715Z,15.95
2022-11-24T04:03:43.988Z,16.52
2022-11-24T04:06:12.450Z,17.30
2022-11-24T04:08:42.081Z,16.85
2022-11-24T04:11:30.198Z,17.45
2022-11-24T04:13:57.306Z,18.77
2022-11-24T04:16:25.747Z,17.02
2022-11-24T04:18:54.397Z,19.65
2022-11-24T04:21:22.594Z,17.50
2022-11-24T04:23:52.134Z,17.85
2022-11-24T04:26:20.374Z,18.70
2022-11-24T04:28:48.671Z,17.17
2022-11-24T04:31:16.965Z,17.42
2022-11-24T04:33:45.418Z,17.15
2022-11-24T04:36:13.453Z,17.70
2022-11-24T04:39:20.096Z,18.25
2022-11-24T04:41:31.441Z,18.92
2022-11-24T04:43:59.477Z,17.75
2022-11-24T04:46:27.696Z,18.50
2022-11-24T04:48:55.800Z,17.58
2022-11-24T04:51:23.887Z,17.65
2022-11-24T04:53:52.298Z,19.38
2022-11-24T04:56:20.414Z,17.35
2022-11-24T04:58:50.742Z,17.85
2022-11-24T05:01:18.966Z,18.05
2022-11-24T05:03:47.139Z,16.40
2022-11-24T05:06:15.601Z,17.30
2022-11-24T05:08:43.665Z,16.10
2022-11-24T05:11:11.798Z,17.98
2022-11-24T05:13:40.264Z,17.45
2022-11-24T05:16:10.348Z,18.77
2022-11-24T05:18:38.965Z,18.13
2022-11-24T05:21:07.617Z,19.30
2022-11-24T05:23:35.644Z,18.23
2022-11-24T05:26:04.703Z,17.00
2022-11-24T05:28:33.417Z,17.50
2022-11-24T05:31:02.075Z,18.10
2022-11-24T05:33:33.520Z,17.75
2022-11-24T05:36:02.748Z,17.23
2022-11-24T05:38:31.246Z,16.60
2022-11-24T05:41:02.393Z,18.48
2022-11-24T05:43:30.542Z,19.33
2022-11-24T05:46:01.358Z,17.75
2022-11-24T05:48:30.986Z,17.90
2022-11-24T05:50:59.710Z,18.40
2022-11-24T05:53:27.826Z,16.70
2022-11-24T05:55:55.877Z,14.25
2022-11-24T05:58:24.142Z,19.17
2022-11-24T06:00:52.251Z,16.95
2022-11-24T06:03:20.470Z,16.95
2022-11-24T06:05:49.929Z,17.48
2022-11-24T06:08:18.250Z,18.45
2022-11-24T06:10:46.554Z,19.08
2022-11-24T06:13:14.692Z,17.08
2022-11-24T06:15:43.042Z,19.45
2022-11-24T06:18:11.299Z,19.42
2022-11-24T06:20:39.531Z,17.95
2022-11-24T06:23:09.331Z,17.40
2022-11-24T06:25:37.585Z,16.95
2022-11-24T06:28:07.044Z,19.08
2022-11-24T06:30:35.065Z,18.52
2022-11-24T06:33:03.259Z,19.10
2022-11-24T06:35:31.499Z,19.05
2022-11-24T06:37:59.604Z,19.63
2022-11-24T06:40:28.981Z,19.88
2022-11-24T06:42:57.239Z,17.52
2022-11-24T06:45:25.375Z,19.38
2022-11-24T06:47:54.880Z,18.90
2022-11-24T06:50:23.015Z,18.95
2022-11-24T06:52:51.121Z,19.40
2022-11-24T06:55:19.183Z,17.67
2022-11-24T06:57:48.956Z,17.35
2022-11-24T07:00:18.554Z,18.05
2022-11-24T07:02:46.637Z,19.77
2022-11-24T07:05:14.927Z,20.00
2022-11-24T07:07:43.021Z,20.95
2022-11-24T07:10:11.296Z,22.65
2022-11-24T07:12:39.642Z,21.40
2022-11-24T07:15:11.181Z,23.38
2022-11-24T07:17:40.544Z,21.50
2022-11-24T07:20:10.110Z,21.80
2022-11-24T07:22:38.179Z,23.13
2022-11-24T07:25:09.740Z,23.88
2022-11-24T07:27:38.239Z,26.85
2022-11-24T07:30:07.321Z,28.27
2022-11-24T07:32:36.854Z,26.85
2022-11-24T07:35:05.757Z,20.90
2022-11-24T07:37:34.259Z,21.45
2022-11-24T07:40:02.246Z,18.90
2022-11-24T07:42:30.331Z,19.30
2022-11-24T07:44:58.331Z,19.13
2022-11-24T07:47:26.397Z,17.27
2022-11-24T07:49:55.946Z,18.85
2022-11-24T07:52:26.724Z,17.63
2022-11-24T07:54:54.830Z,17.05
2022-11-24T07:57:23.537Z,16.10
2022-11-24T07:59:51.501Z,14.85
2022-11-24T10:15:36.059Z,11.70
2022-11-24T10:18:21.244Z,11.32
2022-11-24T10:21:08.796Z,10.60
2022-11-24T10:23:59.176Z,14.07
2022-11-24T10:26:36.043Z,14.18
2022-11-24T10:29:16.839Z,12.30
2022-11-24T10:31:48.565Z,13.55
2022-11-24T10:34:19.630Z,11.80
2022-11-24T10:36:53.103Z,11.10
2022-11-24T10:39:29.076Z,11.35
2022-11-24T10:42:04.294Z,10.57
2022-11-24T10:44:32.644Z,10.80
2022-11-24T10:47:02.606Z,10.80
2022-11-24T10:49:33.841Z,10.50
2022-11-24T10:52:07.767Z,8.98
2022-11-24T10:54:37.071Z,11.40
2022-11-24T10:57:05.440Z,11.73
2022-11-24T10:59:37.565Z,10.23
2022-11-24T11:02:41.712Z,11.38
2022-11-24T11:05:42.203Z,12.68
2022-11-24T11:08:31.819Z,10.05
2022-11-24T11:11:15.888Z,11.18
2022-11-24T11:14:00.068Z,10.05
2022-11-24T11:16:36.670Z,7.93
2022-11-24T11:19:26.046Z,7.63
2022-11-24T11:22:04.451Z,8.05
2022-11-24T11:24:32.935Z,9.00
2022-11-24T11:27:02.768Z,9.30
2022-11-24T11:35:13.659Z,9.43
2022-11-24T11:37:45.400Z,8.88
2022-11-24T11:40:18.726Z,7.90
2022-11-24T11:43:02.293Z,8.95
2022-11-24T11:45:36.541Z,10.23
2022-11-24T11:48:27.973Z,8.95
2022-11-24T11:54:03.745Z,9.10
2022-11-24T11:56:36.412Z,9.27
2022-11-24T11:59:30.210Z,11.40
2022-11-24T12:02:20.937Z,9.63
2022-11-24T12:04:54.199Z,8.50
2022-11-24T12:07:38.866Z,8.13
2022-11-24T12:10:21.981Z,9.55
2022-11-24T12:13:05.226Z,9.98
2022-11-24T12:15:39.144Z,10.73
2022-11-24T12:18:48.439Z,10.88
2022-11-24T12:21:22.882Z,10.52
2022-11-24T12:24:05.855Z,10.43
2022-11-24T12:26:46.764Z,10.48
2022-11-24T12:29:34.753Z,10.07
2022-11-24T12:32:12.593Z,10.63
2022-11-24T12:34:51.434Z,11.35
2022-11-24T12:37:37.404Z,11.57
2022-11-24T12:40:14.684Z,11.20
2022-11-24T12:42:51.711Z,12.73
2022-11-24T12:45:35.409Z,11.70
2022-11-24T12:48:20.219Z,10.30
2022-11-24T12:50:49.506Z,10.98
2022-11-24T12:53:23.312Z,11.85
2022-11-24T12:55:51.965Z,11.85
2022-11-24T12:58:27.691Z,12.60
2022-11-24T13:01:13.110Z,11.50
2022-11-24T13:04:00.952Z,11.20
2022-11-24T13:06:38.418Z,11.45
2022-11-24T13:09:10.277Z,12.73
2022-11-24T13:11:41.380Z,11.00
2022-11-24T13:14:17.592Z,11.25
2022-11-24T13:19:45.867Z,11.13
2022-11-24T13:22:24.026Z,12.18
2022-11-24T13:25:14.551Z,12.50
2022-11-24T13:27:45.722Z,12.02
2022-11-24T13:30:52.028Z,14.52
2022-11-24T13:33:42.985Z,12.00
2022-11-24T13:36:33.487Z,14.27
2022-11-24T13:39:03.666Z,14.90
2022-11-24T13:42:42.107Z,13.00
2022-11-24T13:45:00.314Z,12.55
2022-11-24T13:47:34.883Z,16.35
2022-11-24T13:50:07.372Z,14.35
2022-11-24T13:52:50.325Z,14.43
2022-11-24T13:55:26.071Z,14.32
2022-11-24T13:57:57.733Z,15.95
2022-11-24T14:00:28.673Z,14.68
2022-11-24T14:03:04.565Z,14.85
2022-11-24T14:05:41.084Z,14.70
2022-11-24T14:08:20.521Z,17.38
2022-11-24T14:10:48.674Z,14.75
2022-11-24T14:13:27.860Z,14.82
2022-11-24T14:16:04.259Z,16.15
2022-11-24T14:18:34.893Z,14.80
2022-11-24T14:21:23.341Z,16.27
2022-11-24T14:23:54.418Z,16.20
2022-11-24T14:26:25.011Z,15.50
2022-11-24T14:28:55.351Z,14.75
2022-11-24T14:31:25.685Z,19.38
2022-11-24T14:34:14.106Z,17.95
2022-11-24T14:36:44.066Z,18.00
2022-11-24T14:39:14.211Z,16.67
2022-11-24T14:41:45.165Z,17.48
2022-11-24T14:44:18.587Z,17.05
2022-11-24T14:46:47.282Z,17.75
2022-11-24T14:49:23.664Z,17.85
2022-11-24T14:51:58.068Z,18.73
2022-11-24T14:54:26.525Z,18.25
2022-11-24T14:57:01.471Z,17.85
2022-11-24T14:59:31.280Z,16.73
2022-11-24T15:02:00.637Z,14.77
2022-11-24T15:05:02.194Z,17.17
2022-11-24T15:07:26.763Z,18.50
2022-11-24T15:09:58.053Z,16.85
2022-11-24T15:12:31.098Z,17.70
2022-11-24T15:15:01.788Z,16.45
2022-11-24T15:17:31.334Z,17.70
2022-11-24T15:20:03.423Z,14.93
2022-11-24T15:22:39.946Z,18.05
2022-11-24T15:25:40.755Z,20.20
2022-11-24T15:28:09.740Z,18.67
2022-11-24T15:30:38.778Z,19.58
2022-11-24T15:33:15.590Z,18.15
2022-11-24T15:35:44.304Z,18.70
2022-11-24T15:38:14.433Z,19.35
2022-11-24T15:40:45.499Z,15.77
2022-11-24T15:43:20.292Z,14.40
2022-11-24T15:45:48.556Z,14.30
2022-11-24T15:48:18.389Z,14.48
2022-11-24T15:50:47.165Z,15.75
2022-11-24T15:53:20.856Z,14.43
2022-11-24T15:55:49.264Z,13.60
2022-11-24T15:58:17.721Z,12.50
2022-11-24T16:00:46.259Z,12.20
2022-11-24T16:03:45.566Z,12.35
2022-11-24T16:06:06.707Z,13.77
2022-11-24T16:08:36.067Z,14.93
2022-11-24T16:11:04.101Z,13.77
2022-11-24T16:13:32.423Z,13.75
2022-11-24T16:16:00.601Z,13.05
2022-11-24T16:18:28.722Z,12.02
2022-11-24T16:20:56.771Z,14.55
2022-11-24T16:23:25.202Z,14.80
2022-11-24T16:25:54.964Z,14.70
2022-11-24T16:28:22.927Z,15.15
2022-11-24T16:30:51.717Z,15.20
2022-11-24T16:33:19.686Z,13.13
2022-11-24T16:35:48.407Z,13.77
2022-11-24T16:38:17.374Z,14.60
2022-11-24T16:40:46.058Z,13.77
2022-11-24T16:43:15.450Z,14.60
2022-11-24T16:45:45.545Z,14.95
2022-11-24T16:48:13.686Z,15.45
2022-11-24T16:50:42.058Z,13.77
2022-11-24T16:53:10.175Z,17.88
2022-11-24T16:55:38.265Z,16.63
2022-11-24T16:58:06.529Z,15.48
2022-11-24T17:00:35.977Z,15.02
2022-11-24T17:03:04.174Z,14.52
2022-11-24T17:05:32.237Z,13.85
2022-11-24T17:08:00.314Z,13.45
2022-11-24T17:10:28.372Z,10.63
2022-11-24T17:12:56.340Z,11.65
2022-11-24T17:15:33.711Z,10.45
2022-11-24T17:20:53.579Z,10.00
2022-11-24T17:23:21.616Z,9.45
2022-11-24T17:25:49.992Z,10.13
2022-11-24T17:28:18.369Z,9.73
2022-11-24T17:30:46.595Z,9.77
2022-11-24T17:33:15.920Z,11.68
2022-11-24T17:35:43.953Z,9.30
2022-11-24T17:38:12.222Z,10.35
2022-11-24T17:40:40.334Z,10.38
2022-11-24T17:43:08.356Z,13.07
2022-11-24T17:45:36.547Z,10.10
2022-11-24T17:48:05.352Z,10.55
2022-11-24T17:50:35.047Z,13.43
2022-11-24T17:53:03.070Z,15.32
2022-11-24T17:55:31.185Z,14.73
2022-11-24T17:57:59.272Z,14.52
2022-11-24T18:00:27.420Z,16.52
2022-11-24T18:02:56.815Z,15.52
2022-11-24T18:05:25.335Z,17.33
2022-11-24T18:07:55.127Z,16.25
2022-11-24T18:10:23.596Z,16.60
2022-11-24T18:12:51.622Z,16.85
2022-11-24T18:15:19.755Z,16.85
2022-11-24T18:17:47.820Z,20.15
2022-11-24T18:20:16.077Z,16.52
2022-11-24T18:23:05.607Z,19.63
2022-11-24T18:25:37.155Z,18.75
2022-11-24T18:28:05.746Z,16.30
2022-11-24T18:30:33.833Z,26.70
2022-11-24T18:33:01.931Z,24.10
2022-11-24T18:35:29.954Z,17.95
2022-11-24T18:37:58.482Z,17.83
2022-11-24T18:40:26.655Z,19.58
2022-11-24T18:42:56.205Z,20.92
2022-11-24T18:45:25.168Z,31.77
2022-11-24T18:47:53.298Z,27.85
2022-11-24T18:50:22.011Z,19.77
2022-11-24T18:52:50.218Z,18.88
2022-11-24T18:55:18.487Z,16.15
2022-11-24T18:57:46.563Z,16.67
2022-11-24T19:00:18.408Z,17.48
2022-11-24T19:02:51.300Z,14.80
2022-11-24T19:05:20.779Z,15.05
2022-11-24T19:07:48.800Z,14.23
2022-11-24T19:10:17.227Z,16.30
2022-11-24T19:12:45.706Z,16.95
2022-11-24T19:15:14.280Z,15.23
2022-11-24T19:17:47.418Z,15.00
2022-11-24T19:20:15.798Z,13.85
2022-11-24T19:22:44.907Z,13.93
2022-11-24T19:25:12.964Z,14.20
2022-11-24T19:27:41.167Z,15.77
2022-11-24T19:30:10.536Z,15.15
2022-11-24T19:32:38.699Z,14.73
2022-11-24T19:35:09.019Z,15.60
2022-11-24T19:37:37.180Z,16.90
2022-11-24T19:40:06.131Z,17.45
2022-11-24T19:42:34.224Z,19.52
2022-11-24T19:45:02.155Z,19.95
2022-11-24T19:47:30.493Z,19.38
2022-11-24T19:49:58.700Z,17.35
2022-11-24T19:52:28.485Z,17.73
2022-11-24T19:54:56.600Z,16.90
2022-11-24T19:57:24.769Z,17.08
2022-11-24T19:59:53.035Z,18.77
2022-11-24T20:02:21.267Z,18.35
2022-11-24T20:04:49.542Z,17.92
2022-11-24T20:07:19.092Z,16.92
2022-11-24T20:09:48.684Z,17.10
2022-11-24T20:12:16.911Z,22.52
2022-11-24T20:14:44.911Z,20.58
2022-11-24T20:17:14.096Z,28.65
2022-11-24T20:19:42.159Z,22.17
2022-11-24T20:22:10.345Z,23.73
2022-11-24T20:24:38.536Z,21.10
2022-11-24T20:27:08.041Z,19.70
2022-11-24T20:29:36.141Z,17.25
2022-11-24T20:32:04.483Z,18.23
2022-11-24T20:34:33.069Z,19.15
2022-11-24T20:37:01.515Z,21.48
2022-11-24T20:39:29.730Z,20.73
2022-11-24T20:41:58.002Z,15.48
2022-11-24T20:44:28.115Z,19.25
2022-11-24T20:46:58.153Z,18.05
2022-11-24T20:49:27.298Z,17.23
2022-11-24T20:51:57.192Z,19.10
2022-11-24T20:54:25.510Z,17.15
2022-11-24T20:56:53.859Z,17.60
2022-11-24T20:59:24.490Z,15.88
2022-11-24T21:01:56.129Z,15.38
2022-11-24T21:04:26.476Z,16.17
2022-11-24T21:06:54.754Z,14.50
2022-11-24T21:09:22.926Z,16.42
2022-11-24T21:11:50.930Z,15.15
2022-11-24T21:14:19.434Z,17.88
2022-11-24T21:16:47.553Z,16.05
2022-11-24T21:19:18.678Z,14.05
2022-11-24T21:21:47.779Z,17.15
2022-11-24T21:24:17.385Z,18.55
2022-11-24T21:26:47.887Z,16.20
2022-11-24T21:29:20.265Z,15.75
2022-11-24T21:31:48.663Z,15.85
2022-11-24T21:34:19.454Z,15.60
2022-11-24T21:36:48.023Z,15.95
2022-11-24T21:39:16.829Z,15.15
2022-11-24T21:41:45.317Z,15.50
2022-11-24T21:44:14.465Z,14.48
2022-11-24T21:46:48.292Z,16.98
2022-11-24T21:49:22.159Z,15.32
2022-11-24T21:51:55.268Z,15.20
2022-11-24T21:54:23.701Z,15.25
2022-11-24T21:56:51.663Z,16.52
2022-11-24T21:59:21.295Z,15.27
2022-11-24T22:01:49.371Z,15.45
2022-11-24T22:04:17.753Z,18.92
2022-11-24T22:06:47.279Z,19.05
2022-11-24T22:09:18.228Z,18.50
2022-11-24T22:11:49.269Z,17.60
2022-11-24T22:14:17.581Z,18.00
2022-11-24T22:16:46.163Z,17.02
2022-11-24T22:19:14.418Z,16.90
2022-11-24T22:21:42.795Z,17.25
2022-11-24T22:24:12.658Z,16.25
2022-11-24T22:26:40.636Z,16.38
2022-11-24T22:29:09.044Z,17.25
2022-11-24T22:31:37.117Z,14.70
2022-11-24T22:34:06.391Z,17.08
2022-11-24T22:36:36.638Z,15.32
2022-11-24T22:39:06.594Z,14.52
2022-11-24T22:41:37.032Z,15.82
2022-11-24T22:44:05.962Z,14.73
2022-11-24T22:46:34.011Z,15.95
2022-11-24T22:49:02.892Z,15.55
2022-11-24T22:51:33.030Z,16.40
2022-11-24T22:54:03.040Z,17.48
2022-11-24T22:56:32.613Z,16.67
2022-11-24T22:59:04.647Z,16.13
2022-11-24T23:01:34.264Z,15.10
2022-11-24T23:04:03.885Z,16.15
2022-11-24T23:06:33.510Z,14.68
2022-11-24T23:09:03.276Z,17.02
2022-11-24T23:11:37.744Z,16.90
2022-11-24T23:14:12.118Z,15.50
2022-11-24T23:16:40.588Z,16.02
2022-11-24T23:19:08.875Z,15.95
2022-11-24T23:21:39.355Z,17.35
2022-11-24T23:24:09.013Z,15.35
2022-11-24T23:26:39.326Z,15.48
2022-11-24T23:29:11.179Z,15.73
2022-11-24T23:31:40.696Z,15.98
2022-11-24T23:34:09.054Z,15.45
2022-11-24T23:36:37.119Z,14.73
2022-11-24T23:39:06.494Z,14.57
2022-11-24T23:41:34.805Z,12.98
2022-11-24T23:44:02.926Z,12.80
2022-11-24T23:46:32.586Z,15.05
2022-11-24T23:49:00.958Z,15.10
2022-11-24T23:51:30.785Z,15.05
2022-11-24T23:53:59.952Z,17.67
2022-11-24T23:56:32.345Z,15.98
2022-11-24T23:59:00.606Z,16.27
